createdAt,value
2022-09-04T00:01:30.414Z,42.32
2022-09-04T00:04:10.288Z,42.34
2022-09-04T00:06:49.653Z,42.02
2022-09-04T00:09:43.821Z,41.88
2022-09-04T00:12:10.653Z,41.88
2022-09-04T00:15:03.797Z,41.65
2022-09-04T00:17:54.572Z,41.82
2022-09-04T00:20:43.433Z,41.79
2022-09-04T00:23:37.128Z,41.99
2022-09-04T00:26:31.738Z,42.70
2022-09-04T00:29:15.113Z,42.83
2022-09-04T00:31:51.933Z,42.48
2022-09-04T00:34:42.110Z,42.54
2022-09-04T00:37:18.988Z,42.80
2022-09-04T00:40:14.095Z,43.11
2022-09-04T00:43:07.027Z,42.69
2022-09-04T00:45:58.650Z,42.72
2022-09-04T00:48:48.314Z,43.08
2022-09-04T00:51:27.424Z,43.12
2022-09-04T00:54:30.338Z,43.22
2022-09-04T00:57:24.744Z,44.00
2022-09-04T01:00:18.749Z,43.59
2022-09-04T01:03:21.961Z,43.02
2022-09-04T01:06:01.139Z,43.66
2022-09-04T01:08:55.956Z,43.25
2022-09-04T01:11:43.190Z,42.88
2022-09-04T01:14:21.248Z,43.00
2022-09-04T01:17:13.773Z,43.04
2022-09-04T01:20:07.119Z,42.66
2022-09-04T01:22:47.172Z,42.69
2022-09-04T01:25:51.512Z,43.22
2022-09-04T01:28:30.314Z,42.76
2022-09-04T01:31:35.202Z,42.84
2022-09-04T01:34:28.452Z,43.70
2022-09-04T01:37:19.888Z,42.64
2022-09-04T01:40:02.164Z,42.92
2022-09-04T01:43:01.494Z,42.58
2022-09-04T01:46:11.408Z,43.15
2022-09-04T01:48:48.872Z,43.09
2022-09-04T01:51:32.672Z,42.88
2022-09-04T01:54:35.245Z,42.49
2022-09-04T01:57:13.404Z,42.82
2022-09-04T02:00:15.153Z,43.00
2022-09-04T02:03:08.042Z,42.86
2022-09-04T02:06:12.348Z,43.01
2022-09-04T02:09:04.473Z,43.49
2022-09-04T02:11:31.978Z,42.73
2022-09-04T02:14:29.384Z,42.66
2022-09-04T02:17:18.539Z,43.54
2022-09-04T02:20:10.072Z,43.27
2022-09-04T02:22:44.556Z,44.05
2022-09-04T02:25:28.129Z,44.15
2022-09-04T02:28:16.744Z,44.39
2022-09-04T02:31:01.852Z,44.12
2022-09-04T02:33:46.711Z,43.89
2022-09-04T02:36:15.795Z,43.79
2022-09-04T02:39:14.917Z,43.52
2022-09-04T02:42:00.604Z,43.23
2022-09-04T02:44:30.449Z,42.47
2022-09-04T02:47:24.857Z,43.42
2022-09-04T02:50:03.253Z,42.80
2022-09-04T02:52:51.887Z,43.05
2022-09-04T02:55:37.474Z,42.62
2022-09-04T02:58:22.973Z,43.05
2022-09-04T03:00:55.057Z,43.50
2022-09-04T03:03:29.449Z,43.62
2022-09-04T03:06:22.950Z,43.70
2022-09-04T03:08:53.428Z,43.99
2022-09-04T03:11:33.267Z,44.06
2022-09-04T03:14:07.660Z,44.03
2022-09-04T03:16:51.784Z,43.86
2022-09-04T03:19:28.230Z,43.84
2022-09-04T03:22:21.706Z,43.58
2022-09-04T03:25:25.665Z,43.98
2022-09-04T03:27:52.246Z,44.69
2022-09-04T03:30:18.888Z,44.80
2022-09-04T03:33:08.611Z,44.44
2022-09-04T03:35:49.055Z,44.69
2022-09-04T03:38:27.213Z,45.24
2022-09-04T03:41:18.206Z,45.65
2022-09-04T03:43:47.787Z,46.41
2022-09-04T03:46:52.224Z,45.75
2022-09-04T03:49:44.900Z,45.02
2022-09-04T03:52:26.030Z,45.29
2022-09-04T03:55:13.488Z,45.00
2022-09-04T03:58:04.371Z,44.62
2022-09-04T04:00:44.233Z,44.23
2022-09-04T04:03:42.745Z,44.41
2022-09-04T04:06:23.369Z,44.52
2022-09-04T04:09:21.484Z,44.56
2022-09-04T04:12:13.515Z,44.32
2022-09-04T04:15:10.087Z,44.96
2022-09-04T04:18:04.404Z,45.35
2022-09-04T04:20:40.099Z,45.03
2022-09-04T04:23:18.541Z,44.99
2022-09-04T04:26:00.999Z,45.14
2022-09-04T04:28:59.981Z,46.00
2022-09-04T04:31:38.887Z,45.53
2022-09-04T04:34:05.765Z,45.04
2022-09-04T04:36:40.232Z,45.17
2022-09-04T04:39:30.460Z,44.78
2022-09-04T04:42:09.260Z,45.47
2022-09-04T04:45:23.472Z,45.44
2022-09-04T04:48:36.687Z,45.96
2022-09-04T04:51:24.462Z,46.01
2022-09-04T04:53:58.156Z,46.33
2022-09-04T04:56:45.998Z,46.01
2022-09-04T04:59:26.029Z,45.75
2022-09-04T05:02:07.800Z,45.47
2022-09-04T05:05:02.573Z,45.65
2022-09-04T05:08:09.512Z,45.17
2022-09-04T05:10:45.369Z,44.53
2022-09-04T05:13:21.018Z,43.55
2022-09-04T05:16:16.499Z,42.03
2022-09-04T05:19:06.991Z,40.84
2022-09-04T05:21:44.445Z,40.41
2022-09-04T05:24:22.607Z,38.80
2022-09-04T05:27:04.109Z,38.09
2022-09-04T05:29:52.343Z,37.02
2022-09-04T05:32:37.711Z,36.37
2022-09-04T05:35:24.515Z,35.59
2022-09-04T05:38:28.451Z,35.52
2022-09-04T05:41:16.747Z,35.15
2022-09-04T05:44:24.226Z,35.90
2022-09-04T05:47:08.796Z,35.02
2022-09-04T05:49:48.098Z,35.08
2022-09-04T05:53:08.043Z,35.16
2022-09-04T05:55:53.355Z,34.21
2022-09-04T05:58:45.588Z,33.08
2022-09-04T06:01:52.095Z,32.73
2022-09-04T06:04:45.147Z,32.60
2022-09-04T06:07:34.076Z,31.68
2022-09-04T06:10:36.129Z,31.63
2022-09-04T06:13:09.897Z,31.12
2022-09-04T06:15:58.023Z,31.18
2022-09-04T06:18:46.416Z,30.25
2022-09-04T06:21:32.159Z,30.23
2022-09-04T06:24:29.868Z,29.68
2022-09-04T06:27:08.469Z,29.34
2022-09-04T06:29:59.008Z,29.63
2022-09-04T06:32:40.720Z,29.46
2022-09-04T06:35:27.112Z,28.70
2022-09-04T06:38:14.333Z,28.50
2022-09-04T06:40:59.340Z,28.41
2022-09-04T06:43:38.620Z,28.26
2022-09-04T06:46:13.350Z,28.84
2022-09-04T06:48:54.856Z,28.83
2022-09-04T06:51:47.043Z,28.15
2022-09-04T06:54:42.135Z,27.94
2022-09-04T06:57:35.165Z,27.84
2022-09-04T07:00:10.951Z,28.84
2022-09-04T07:03:01.867Z,29.16
2022-09-04T07:05:44.015Z,30.26
2022-09-04T07:08:29.753Z,30.22
2022-09-04T07:11:14.853Z,31.49
2022-09-04T07:14:22.953Z,31.39
2022-09-04T07:17:14.656Z,31.71
2022-09-04T07:20:01.681Z,31.22
2022-09-04T07:22:39.729Z,31.20
2022-09-04T07:25:17.177Z,31.69
2022-09-04T07:28:11.426Z,31.73
2022-09-04T07:31:08.216Z,31.71
2022-09-04T07:33:55.144Z,30.88
2022-09-04T07:36:49.090Z,30.36
2022-09-04T07:39:36.147Z,29.79
2022-09-04T07:42:18.120Z,30.99
2022-09-04T07:44:59.115Z,30.92
2022-09-04T07:47:36.566Z,31.14
2022-09-04T07:50:11.185Z,31.49
2022-09-04T07:53:11.141Z,31.03
2022-09-04T07:55:46.773Z,31.33
2022-09-04T07:58:39.731Z,31.99
2022-09-04T08:01:31.340Z,31.15
2022-09-04T08:04:16.722Z,31.25
2022-09-04T08:07:10.781Z,31.23
2022-09-04T08:09:56.476Z,30.62
2022-09-04T08:12:34.844Z,30.72
2022-09-04T08:15:24.217Z,31.20
2022-09-04T08:18:26.029Z,30.37
2022-09-04T08:21:14.715Z,30.96
2022-09-04T08:24:05.438Z,29.84
2022-09-04T08:26:51.896Z,29.83
2022-09-04T08:29:57.452Z,30.38
2022-09-04T08:32:58.912Z,29.75
2022-09-04T08:35:46.793Z,29.82
2022-09-04T08:38:45.967Z,29.71
2022-09-04T08:41:28.977Z,29.75
2022-09-04T08:44:33.172Z,30.27
2022-09-04T08:47:02.944Z,30.08
2022-09-04T08:49:55.690Z,30.21
2022-09-04T08:52:44.985Z,30.35
2022-09-04T08:55:46.825Z,32.06
2022-09-04T08:58:47.531Z,31.88
2022-09-04T09:01:32.882Z,31.78
2022-09-04T09:04:08.186Z,31.63
2022-09-04T09:06:46.194Z,31.60
2022-09-04T09:09:59.762Z,32.86
2022-09-04T09:12:57.209Z,32.89
2022-09-04T09:15:45.458Z,32.52
2022-09-04T09:18:38.216Z,33.03
2022-09-04T09:21:12.213Z,32.94
2022-09-04T09:24:17.210Z,33.33
2022-09-04T09:27:14.733Z,33.94
2022-09-04T09:30:08.852Z,33.49
2022-09-04T09:32:47.513Z,34.07
2022-09-04T09:35:32.427Z,34.24
2022-09-04T09:38:10.472Z,34.55
2022-09-04T09:41:18.761Z,34.24
2022-09-04T09:44:15.332Z,34.13
2022-09-04T09:47:26.780Z,33.09
2022-09-04T09:50:34.572Z,33.85
2022-09-04T09:53:34.956Z,35.36
2022-09-04T09:56:30.637Z,35.99
2022-09-04T09:59:22.932Z,35.57
2022-09-04T10:02:14.065Z,35.26
2022-09-04T10:05:05.165Z,36.31
2022-09-04T10:07:53.367Z,34.85
2022-09-04T10:10:57.409Z,35.38
2022-09-04T10:14:02.192Z,34.12
2022-09-04T10:17:02.564Z,33.64
2022-09-04T10:19:53.715Z,34.52
2022-09-04T10:22:44.431Z,33.77
2022-09-04T10:25:41.864Z,34.25
2022-09-04T10:28:47.360Z,34.26
2022-09-04T10:31:42.157Z,33.70
2022-09-04T10:34:16.586Z,33.93
2022-09-04T10:37:07.642Z,33.67
2022-09-04T10:40:12.108Z,33.20
2022-09-04T10:43:16.407Z,33.68
2022-09-04T10:46:23.022Z,33.82
2022-09-04T10:48:59.384Z,34.50
2022-09-04T10:51:45.653Z,34.51
2022-09-04T10:54:32.638Z,34.97
2022-09-04T10:57:04.897Z,34.46
2022-09-04T10:59:58.381Z,34.75
2022-09-04T11:02:45.160Z,34.54
2022-09-04T11:05:44.810Z,34.71
2022-09-04T11:08:42.779Z,34.19
2022-09-04T11:11:40.546Z,34.09
2022-09-04T11:14:38.545Z,34.76
2022-09-04T11:17:24.305Z,35.22
2022-09-04T11:20:19.157Z,34.99
2022-09-04T11:23:13.767Z,34.34
2022-09-04T11:25:52.065Z,33.80
2022-09-04T11:28:56.930Z,34.58
2022-09-04T11:31:40.147Z,34.39
2022-09-04T11:34:19.993Z,34.06
2022-09-04T11:37:05.946Z,34.10
2022-09-04T11:39:48.177Z,33.97
2022-09-04T11:42:40.472Z,33.76
2022-09-04T11:45:26.967Z,33.64
2022-09-04T11:48:13.996Z,33.13
2022-09-04T11:51:05.594Z,33.45
2022-09-04T11:53:56.645Z,33.80
2022-09-04T11:56:41.784Z,33.59
2022-09-04T11:59:11.063Z,32.53
2022-09-04T12:01:56.393Z,32.25
2022-09-04T12:05:01.110Z,32.64
2022-09-04T12:07:42.929Z,33.21
2022-09-04T12:10:57.853Z,33.43
2022-09-04T12:13:57.403Z,33.19
2022-09-04T12:16:52.884Z,32.33
2022-09-04T12:20:08.099Z,32.65
2022-09-04T12:22:54.500Z,33.52
2022-09-04T12:25:35.617Z,33.20
2022-09-04T12:28:24.653Z,33.75
2022-09-04T12:31:29.616Z,33.13
2022-09-04T12:34:34.298Z,33.20
2022-09-04T12:37:43.523Z,33.27
2022-09-04T12:40:34.356Z,32.50
2022-09-04T12:43:16.753Z,32.40
2022-09-04T12:46:05.864Z,32.10
2022-09-04T12:48:45.601Z,31.68
2022-09-04T12:51:16.575Z,32.30
2022-09-04T12:54:10.717Z,32.58
2022-09-04T12:56:55.465Z,32.40
2022-09-04T12:59:31.141Z,31.66
2022-09-04T13:02:21.293Z,32.00
2022-09-04T13:05:28.430Z,32.33
2022-09-04T13:08:23.849Z,31.95
2022-09-04T13:11:18.081Z,30.66
2022-09-04T13:14:15.657Z,31.85
2022-09-04T13:16:57.894Z,32.47
2022-09-04T13:19:46.427Z,32.86
2022-09-04T13:22:27.535Z,32.92
2022-09-04T13:25:33.271Z,32.93
2022-09-04T13:27:59.768Z,32.79
2022-09-04T13:30:29.180Z,32.50
2022-09-04T13:32:58.813Z,32.83
2022-09-04T13:35:41.656Z,32.09
2022-09-04T13:38:30.425Z,32.70
2022-09-04T13:41:23.893Z,32.80
2022-09-04T13:44:26.859Z,33.35
2022-09-04T13:47:04.592Z,33.36
2022-09-04T13:49:40.764Z,33.41
2022-09-04T13:52:31.908Z,33.10
2022-09-04T13:55:09.750Z,33.22
2022-09-04T13:57:42.766Z,32.82
2022-09-04T14:00:11.923Z,32.35
2022-09-04T14:02:39.150Z,32.46
2022-09-04T14:05:11.636Z,33.34
2022-09-04T14:07:44.767Z,33.56
2022-09-04T14:10:22.141Z,33.03
2022-09-04T14:13:25.610Z,33.23
2022-09-04T14:16:03.874Z,33.20
2022-09-04T14:18:51.659Z,33.16
2022-09-04T14:21:32.432Z,33.16
2022-09-04T14:24:04.893Z,33.61
2022-09-04T14:27:00.673Z,34.20
2022-09-04T14:29:27.369Z,33.62
2022-09-04T14:32:10.620Z,32.91
2022-09-04T14:34:59.165Z,33.23
2022-09-04T14:38:04.467Z,33.17
2022-09-04T14:40:59.883Z,33.47
2022-09-04T14:43:44.429Z,33.24
2022-09-04T14:46:20.669Z,32.78
2022-09-04T14:48:59.615Z,33.24
2022-09-04T14:51:26.698Z,33.75
2022-09-04T14:53:55.936Z,33.52
2022-09-04T14:56:31.572Z,33.78
2022-09-04T14:59:08.345Z,33.31
2022-09-04T15:01:55.295Z,34.12
2022-09-04T15:04:34.137Z,33.76
2022-09-04T15:07:18.893Z,34.06
2022-09-04T15:09:49.373Z,33.26
2022-09-04T15:12:25.748Z,32.98
2022-09-04T15:15:16.103Z,33.51
2022-09-04T15:17:57.401Z,33.63
2022-09-04T15:20:28.453Z,33.65
2022-09-04T15:23:31.005Z,33.59
2022-09-04T15:26:07.125Z,32.91
2022-09-04T15:28:47.290Z,33.88
2022-09-04T15:31:21.649Z,33.43
2022-09-04T15:33:48.956Z,33.44
2022-09-04T15:36:23.811Z,34.27
2022-09-04T15:38:56.785Z,33.51
2022-09-04T15:41:37.393Z,33.88
2022-09-04T15:44:14.762Z,34.24
2022-09-04T15:47:00.026Z,34.42
2022-09-04T15:49:48.737Z,34.04
2022-09-04T15:52:24.581Z,34.17
2022-09-04T15:55:00.804Z,34.08
2022-09-04T15:57:39.321Z,34.53
2022-09-04T16:00:13.024Z,33.83
2022-09-04T16:02:46.403Z,33.74
2022-09-04T16:05:23.979Z,34.56
2022-09-04T16:08:06.629Z,34.27
2022-09-04T16:10:49.049Z,33.62
2022-09-04T16:13:24.798Z,33.11
2022-09-04T16:16:03.512Z,32.97
2022-09-04T16:18:47.109Z,33.18
2022-09-04T16:21:24.516Z,33.58
2022-09-04T16:23:51.444Z,33.57
2022-09-04T16:26:26.384Z,33.56
2022-09-04T16:29:04.867Z,33.52
2022-09-04T16:31:35.264Z,33.53
2022-09-04T16:34:14.365Z,33.60
2022-09-04T16:36:46.032Z,33.82
2022-09-04T16:39:26.887Z,34.02
2022-09-04T16:42:25.292Z,34.69
2022-09-04T16:45:02.220Z,34.79
2022-09-04T16:47:40.857Z,34.45
2022-09-04T16:50:18.869Z,34.43
2022-09-04T16:53:13.005Z,34.89
2022-09-04T16:55:58.881Z,34.81
2022-09-04T16:58:54.613Z,35.06
2022-09-04T17:01:32.444Z,35.15
2022-09-04T17:04:24.351Z,34.88
2022-09-04T17:07:02.893Z,34.82
2022-09-04T17:09:56.050Z,35.12
2022-09-04T17:12:26.977Z,34.71
2022-09-04T17:15:08.006Z,34.00
2022-09-04T17:17:40.907Z,34.06
2022-09-04T17:20:21.570Z,33.56
2022-09-04T17:28:44.673Z,32.79
2022-09-04T17:29:07.542Z,33.17
2022-09-04T17:29:12.870Z,32.68
2022-09-04T17:31:52.957Z,33.02
2022-09-04T17:40:32.814Z,33.00
2022-09-04T17:40:57.150Z,32.97
2022-09-04T17:41:31.303Z,33.38
2022-09-04T17:43:59.593Z,33.59
2022-09-04T17:46:39.008Z,33.69
2022-09-04T17:49:29.493Z,34.07
2022-09-04T17:52:08.950Z,34.33
2022-09-04T17:54:49.248Z,34.56
2022-09-04T17:57:32.565Z,34.01
2022-09-04T18:00:06.758Z,34.73
2022-09-04T18:03:19.063Z,34.83
2022-09-04T18:05:53.763Z,35.35
2022-09-04T18:08:45.000Z,35.01
2022-09-04T18:11:32.564Z,34.98
2022-09-04T18:14:20.473Z,35.93
2022-09-04T18:17:11.222Z,35.84
2022-09-04T18:19:56.412Z,36.13
2022-09-04T18:22:33.566Z,36.24
2022-09-04T18:25:21.884Z,36.08
2022-09-04T18:28:12.988Z,36.57
2022-09-04T18:37:12.272Z,36.31
2022-09-04T18:37:18.592Z,37.10
2022-09-04T18:37:20.591Z,36.32
2022-09-04T18:40:15.478Z,37.04
2022-09-04T18:50:23.411Z,37.02
2022-09-04T18:50:37.750Z,37.24
2022-09-04T18:50:38.909Z,36.98
2022-09-04T18:51:54.792Z,36.77
2022-09-04T18:54:36.345Z,36.50
2022-09-04T18:57:13.384Z,37.27
2022-09-04T18:59:45.594Z,37.17
2022-09-04T19:02:28.924Z,38.02
2022-09-04T19:05:08.828Z,38.13
2022-09-04T19:07:48.901Z,38.66
2022-09-04T19:10:29.730Z,38.53
2022-09-04T19:13:10.172Z,38.73
2022-09-04T19:15:59.640Z,39.16
2022-09-04T19:18:41.608Z,39.62
2022-09-04T19:21:08.113Z,39.01
2022-09-04T19:23:42.959Z,38.49
2022-09-04T19:26:26.787Z,39.29
2022-09-04T19:29:10.824Z,38.55
2022-09-04T19:31:42.158Z,39.35
2022-09-04T19:34:35.365Z,39.04
2022-09-04T19:37:26.034Z,39.34
2022-09-04T19:45:54.954Z,40.02
2022-09-04T19:46:06.281Z,39.73
2022-09-04T19:46:14.248Z,39.34
2022-09-04T19:48:51.049Z,39.30
2022-09-04T19:53:35.190Z,39.28
2022-09-04T19:55:23.858Z,39.34
2022-09-04T19:58:09.491Z,40.08
2022-09-04T20:00:59.478Z,39.15
2022-09-04T20:03:47.944Z,39.15
2022-09-04T20:06:31.656Z,39.59
2022-09-04T20:09:16.621Z,39.91
2022-09-04T20:11:50.720Z,39.49
2022-09-04T20:14:42.625Z,39.00
2022-09-04T20:18:01.212Z,38.67
2022-09-04T20:20:56.072Z,38.22
2022-09-04T20:23:59.384Z,38.75
2022-09-04T20:26:35.604Z,39.08
2022-09-04T20:29:24.815Z,39.47
2022-09-04T20:31:59.261Z,39.42
2022-09-04T20:34:31.973Z,39.60
2022-09-04T20:37:29.152Z,39.11
2022-09-04T20:40:19.060Z,38.76
2022-09-04T20:43:03.667Z,39.21
2022-09-04T20:49:12.203Z,38.46
2022-09-04T20:52:56.436Z,39.13
2022-09-04T20:52:57.017Z,38.80
2022-09-04T20:54:50.875Z,39.48
2022-09-04T21:03:14.159Z,39.85
2022-09-04T21:03:24.515Z,39.64
2022-09-04T21:04:14.284Z,40.88
2022-09-04T21:06:53.591Z,40.03
2022-09-04T21:09:42.263Z,39.63
2022-09-04T21:12:37.597Z,39.96
2022-09-04T21:15:14.804Z,39.38
2022-09-04T21:18:29.375Z,39.53
2022-09-04T21:21:23.011Z,39.83
2022-09-04T21:24:07.940Z,40.48
2022-09-04T21:27:04.907Z,40.02
2022-09-04T21:29:59.331Z,39.52
2022-09-04T21:33:26.689Z,39.69
2022-09-04T21:36:25.494Z,40.48
2022-09-04T21:39:25.666Z,40.38
2022-09-04T21:42:29.774Z,40.63
2022-09-04T21:45:13.971Z,40.84
2022-09-04T21:48:23.320Z,41.82
2022-09-04T21:50:54.427Z,41.48
2022-09-04T21:54:00.826Z,42.26
2022-09-04T22:02:27.186Z,42.58
2022-09-04T22:02:28.296Z,42.50
2022-09-04T22:03:02.775Z,42.99
2022-09-04T22:05:47.587Z,42.86
2022-09-04T22:13:04.513Z,42.32
2022-09-04T22:13:41.884Z,41.99
2022-09-04T22:14:56.262Z,42.08
2022-09-04T22:18:13.328Z,41.67
2022-09-04T22:21:01.665Z,41.89
2022-09-04T22:24:02.901Z,42.16
2022-09-04T22:26:39.243Z,42.41
2022-09-04T22:29:23.792Z,42.74
2022-09-04T22:32:26.686Z,43.12
2022-09-04T22:35:36.143Z,43.58
2022-09-04T22:38:34.244Z,44.08
2022-09-04T22:41:28.953Z,43.63
2022-09-04T22:44:35.599Z,43.67
2022-09-04T22:47:40.986Z,43.71
2022-09-04T22:50:50.009Z,43.13
2022-09-04T22:53:26.974Z,42.83
2022-09-04T22:56:17.854Z,44.05
2022-09-04T22:59:32.666Z,43.85
2022-09-04T23:02:14.036Z,43.89
2022-09-04T23:04:56.201Z,43.95
2022-09-04T23:11:32.047Z,43.24
2022-09-04T23:13:56.902Z,43.76
2022-09-04T23:13:57.713Z,44.40
2022-09-04T23:16:45.514Z,43.83
2022-09-04T23:24:53.498Z,43.10
2022-09-04T23:26:42.220Z,42.82
2022-09-04T23:26:58.482Z,43.48
2022-09-04T23:28:58.331Z,43.95
2022-09-04T23:31:37.439Z,43.99
2022-09-04T23:34:33.288Z,43.99
2022-09-04T23:37:25.495Z,44.35
2022-09-04T23:40:07.716Z,43.75
2022-09-04T23:43:12.877Z,44.34
2022-09-04T23:45:56.603Z,44.00
2022-09-04T23:48:34.291Z,43.99
2022-09-04T23:51:09.671Z,44.18
2022-09-04T23:53:52.745Z,44.21
2022-09-04T23:56:26.469Z,44.54
2022-09-04T23:59:37.592Z,44.30
